Time;durP1;ratioP1;P1;durP2;ratioP2;P2;SDS_P1;SDS_P2;PMS_P1;PMS_P2;Temp;Humidity;BMP_temperature;BMP_pressure;BME280_temperature;BME280_humidity;BME280_pressure;Samples;Min_cycle;Max_cycle;Signal;HPM_P1;HPM_P2
2022/06/30 00:00:48;;;;;;;14.93;8.40;;;26.00;75.90;;;;;;4981918;28;20203;-73
2022/06/30 00:03:17;;;;;;;15.05;8.32;;;25.90;75.90;;;;;;4982917;28;20205;-73
2022/06/30 00:05:45;;;;;;;13.23;6.53;;;25.90;76.00;;;;;;4978020;28;20197;-73
2022/06/30 00:08:13;;;;;;;12.88;6.93;;;25.90;76.10;;;;;;4976125;28;20200;-73
2022/06/30 00:10:42;;;;;;;23.98;7.40;;;25.90;76.10;;;;;;4971971;28;20205;-73
2022/06/30 00:13:11;;;;;;;11.93;7.30;;;25.90;76.20;;;;;;4975726;28;20196;-73
2022/06/30 00:15:39;;;;;;;16.48;7.97;;;25.80;76.30;;;;;;4973391;28;20197;-73
2022/06/30 00:18:09;;;;;;;14.55;7.00;;;25.80;76.50;;;;;;4968970;28;20194;-73
2022/06/30 00:20:37;;;;;;;14.18;7.40;;;25.80;77.40;;;;;;4980535;28;20239;-73
2022/06/30 00:23:05;;;;;;;10.52;7.00;;;25.80;76.70;;;;;;4978925;28;20232;-73
2022/06/30 00:25:34;;;;;;;14.27;7.00;;;25.80;76.80;;;;;;4980504;28;20208;-73
2022/06/30 00:28:02;;;;;;;15.88;8.10;;;25.70;76.80;;;;;;4981708;28;20200;-73
2022/06/30 00:30:31;;;;;;;11.82;6.65;;;25.70;76.90;;;;;;4970954;28;20211;-73
2022/06/30 00:32:59;;;;;;;13.82;7.90;;;25.70;76.90;;;;;;4976472;28;20190;-73
2022/06/30 00:35:29;;;;;;;15.05;7.53;;;25.70;77.00;;;;;;4982477;28;20221;-73
2022/06/30 00:37:57;;;;;;;13.05;7.95;;;25.70;77.10;;;;;;4978260;28;20812;-73
2022/06/30 00:40:25;;;;;;;13.52;7.93;;;25.70;77.20;;;;;;4986782;28;20194;-73
2022/06/30 00:42:54;;;;;;;14.80;7.45;;;25.60;77.20;;;;;;4976271;28;20193;-73
2022/06/30 00:45:22;;;;;;;15.82;7.40;;;25.60;77.30;;;;;;4978023;28;20201;-73
2022/06/30 00:47:51;;;;;;;14.98;7.75;;;25.60;77.30;;;;;;4982492;28;20193;-73
2022/06/30 00:50:19;;;;;;;14.00;8.07;;;25.60;77.40;;;;;;4983475;28;20649;-73
2022/06/30 00:52:51;;;;;;;14.18;7.05;;;25.60;77.50;;;;;;4973542;28;20263;-73
2022/06/30 00:55:20;;;;;;;13.75;7.53;;;25.60;77.70;;;;;;4982157;28;20867;-73
2022/06/30 00:57:50;;;;;;;11.48;7.32;;;25.60;77.70;;;;;;4984213;28;20203;-73
2022/06/30 01:00:19;;;;;;;15.50;7.47;;;25.50;77.70;;;;;;4984562;28;20185;-73
2022/06/30 01:02:48;;;;;;;10.27;6.75;;;25.50;77.80;;;;;;4984858;28;20670;-73
2022/06/30 01:05:17;;;;;;;12.43;7.43;;;25.50;77.80;;;;;;4986225;28;20205;-73
2022/06/30 01:07:45;;;;;;;12.05;7.65;;;25.50;77.80;;;;;;4981972;28;20201;-73
2022/06/30 01:13:01;;;;;;;11.23;7.63;;;25.50;77.90;;;;;;4977459;28;20260;-73
2022/06/30 01:15:29;;;;;;;10.95;6.60;;;25.50;77.90;;;;;;4983291;28;20221;-73
2022/06/30 01:17:58;;;;;;;12.85;7.30;;;25.50;78.00;;;;;;4969541;28;20830;-73
2022/06/30 01:20:28;;;;;;;12.35;7.13;;;25.40;77.90;;;;;;4982218;28;20721;-73
2022/06/30 01:22:58;;;;;;;9.98;6.25;;;25.40;77.90;;;;;;4979008;28;20573;-73
2022/06/30 01:25:27;;;;;;;13.25;7.53;;;25.40;78.00;;;;;;4980552;28;20193;-73
2022/06/30 01:27:56;;;;;;;13.35;6.38;;;25.40;78.10;;;;;;4977625;28;20197;-73
2022/06/30 01:30:25;;;;;;;10.55;7.38;;;25.40;78.10;;;;;;4978517;28;21037;-73
2022/06/30 01:32:53;;;;;;;10.65;6.55;;;25.40;78.20;;;;;;4979430;28;20551;-73
2022/06/30 01:35:22;;;;;;;10.18;7.20;;;25.40;78.20;;;;;;4983971;28;20220;-73
2022/06/30 01:37:53;;;;;;;13.32;6.82;;;25.40;78.40;;;;;;4982193;28;20197;-73
2022/06/30 01:40:25;;;;;;;9.18;6.50;;;25.30;78.40;;;;;;4977136;28;20196;-73
2022/06/30 01:42:53;;;;;;;10.20;6.60;;;25.30;78.50;;;;;;4983681;28;20201;-73
2022/06/30 01:45:22;;;;;;;12.80;6.60;;;25.30;78.50;;;;;;4985294;28;20185;-73
2022/06/30 01:47:51;;;;;;;11.85;6.60;;;25.30;78.60;;;;;;4983050;28;20194;-73
2022/06/30 01:50:22;;;;;;;10.75;7.20;;;25.20;78.60;;;;;;4973390;28;20198;-73
2022/06/30 01:52:50;;;;;;;10.57;6.25;;;25.20;78.80;;;;;;4983075;28;20193;-73
2022/06/30 01:55:19;;;;;;;13.02;7.03;;;25.20;78.80;;;;;;4979778;28;20221;-73
2022/06/30 01:57:49;;;;;;;9.20;7.00;;;25.20;79.00;;;;;;4984888;28;20694;-73
2022/06/30 02:00:19;;;;;;;9.05;6.28;;;25.10;79.10;;;;;;4982410;28;20204;-73
2022/06/30 02:02:48;;;;;;;12.38;6.80;;;25.10;79.10;;;;;;4982987;28;20197;-73
2022/06/30 02:05:18;;;;;;;14.35;7.03;;;25.10;79.20;;;;;;4970454;28;20699;-73
2022/06/30 02:07:46;;;;;;;14.55;6.53;;;25.00;79.20;;;;;;4971643;28;20682;-73
2022/06/30 02:10:16;;;;;;;13.82;6.65;;;25.00;79.40;;;;;;4979321;28;20204;-73
2022/06/30 02:12:48;;;;;;;9.75;6.85;;;25.00;79.40;;;;;;4980143;28;20284;-73
2022/06/30 02:15:20;;;;;;;11.27;6.70;;;25.00;79.50;;;;;;4975040;28;20214;-73
2022/06/30 02:17:52;;;;;;;10.35;6.70;;;25.00;79.70;;;;;;4984365;28;20196;-73
2022/06/30 02:20:24;;;;;;;11.45;6.07;;;25.00;79.80;;;;;;4985010;28;20224;-73
2022/06/30 02:22:55;;;;;;;11.52;6.43;;;24.90;79.80;;;;;;4979723;28;20230;-73
2022/06/30 02:25:23;;;;;;;12.68;6.70;;;24.90;79.80;;;;;;4983467;28;20193;-73
2022/06/30 02:27:52;;;;;;;11.63;7.03;;;24.90;79.80;;;;;;4977099;28;20880;-72
2022/06/30 02:30:22;;;;;;;9.63;6.38;;;24.80;79.90;;;;;;4966975;28;20194;-73
2022/06/30 02:32:50;;;;;;;9.38;6.18;;;24.80;80.00;;;;;;4978734;28;20214;-72
2022/06/30 02:35:19;;;;;;;10.98;6.75;;;24.80;80.10;;;;;;4983404;28;20894;-72
2022/06/30 02:37:47;;;;;;;16.27;7.07;;;24.80;80.10;;;;;;4979045;28;20201;-72
2022/06/30 02:40:16;;;;;;;13.40;7.00;;;24.80;80.20;;;;;;4978898;28;20230;-72
2022/06/30 02:42:45;;;;;;;12.45;6.78;;;24.80;80.40;;;;;;4984629;28;20198;-72
2022/06/30 02:45:14;;;;;;;10.90;7.13;;;24.80;80.40;;;;;;4981550;28;20617;-73
2022/06/30 02:47:45;;;;;;;12.15;6.40;;;24.80;80.40;;;;;;4973978;28;20208;-72
2022/06/30 02:50:14;;;;;;;8.70;6.05;;;24.80;80.50;;;;;;4978764;28;20365;-73
2022/06/30 02:52:43;;;;;;;12.98;6.80;;;24.80;80.50;;;;;;4976912;28;20197;-73
2022/06/30 02:55:11;;;;;;;14.13;7.75;;;24.80;80.70;;;;;;4984655;28;20221;-72
2022/06/30 02:57:40;;;;;;;10.75;7.28;;;24.80;81.10;;;;;;4981591;28;20197;-73
2022/06/30 03:00:10;;;;;;;11.48;7.82;;;24.70;80.80;;;;;;4981865;28;20201;-73
2022/06/30 03:02:39;;;;;;;16.75;7.97;;;24.80;81.10;;;;;;4981422;28;20193;-73
2022/06/30 03:05:10;;;;;;;18.80;8.15;;;24.70;81.00;;;;;;4978971;28;20208;-73
2022/06/30 03:07:39;;;;;;;17.15;7.10;;;24.80;81.30;;;;;;4979619;28;20205;-74
2022/06/30 03:10:08;;;;;;;17.13;7.68;;;24.80;81.20;;;;;;4982464;28;20559;-73
2022/06/30 03:12:37;;;;;;;15.18;8.15;;;24.80;81.30;;;;;;4977658;28;20193;-73
2022/06/30 03:15:07;;;;;;;14.73;7.13;;;24.80;81.30;;;;;;4984037;28;20612;-73
2022/06/30 03:17:35;;;;;;;13.07;7.43;;;24.70;81.30;;;;;;4981763;28;20544;-73
2022/06/30 03:20:04;;;;;;;14.70;7.35;;;24.80;81.40;;;;;;4978807;28;20228;-73
2022/06/30 03:22:34;;;;;;;13.00;8.25;;;24.70;81.40;;;;;;4976909;28;20232;-74
2022/06/30 03:25:03;;;;;;;15.85;7.57;;;24.70;81.50;;;;;;4980106;28;20225;-74
2022/06/30 03:27:31;;;;;;;13.18;7.45;;;24.70;81.50;;;;;;4972702;28;20198;-72
2022/06/30 03:29:59;;;;;;;13.32;8.25;;;24.70;81.50;;;;;;4978537;28;20201;-73
2022/06/30 03:32:28;;;;;;;13.38;7.78;;;24.70;81.60;;;;;;4982903;28;20206;-73
2022/06/30 03:34:57;;;;;;;12.43;7.82;;;24.70;81.70;;;;;;4981798;28;20200;-73
2022/06/30 03:37:30;;;;;;;14.93;7.38;;;24.80;82.00;;;;;;4981047;28;20785;-74
2022/06/30 03:40:00;;;;;;;16.55;6.60;;;24.80;82.00;;;;;;4983232;28;20209;-73
2022/06/30 03:42:28;;;;;;;13.00;6.85;;;24.80;82.50;;;;;;4972193;28;21176;-74
2022/06/30 03:44:57;;;;;;;15.98;6.68;;;24.80;82.50;;;;;;4978690;28;20201;-73
2022/06/30 03:47:25;;;;;;;10.60;6.90;;;24.80;82.50;;;;;;4971896;28;20283;-73
2022/06/30 03:49:53;;;;;;;9.98;7.30;;;24.80;82.60;;;;;;4982637;28;20205;-73
2022/06/30 03:52:22;;;;;;;11.30;7.47;;;24.80;82.50;;;;;;4976632;28;20228;-73
2022/06/30 03:54:50;;;;;;;12.07;7.45;;;24.80;82.60;;;;;;4981555;28;20279;-73
2022/06/30 03:57:20;;;;;;;13.10;7.50;;;24.80;83.10;;;;;;4981585;28;20200;-73
2022/06/30 03:59:48;;;;;;;11.90;7.80;;;24.80;83.00;;;;;;4976409;28;20762;-73
2022/06/30 04:02:17;;;;;;;13.38;8.25;;;24.80;83.40;;;;;;4976821;28;20201;-73
2022/06/30 04:04:45;;;;;;;15.50;9.30;;;24.90;83.60;;;;;;4983548;28;20196;-73
2022/06/30 04:07:13;;;;;;;13.18;8.20;;;24.90;83.90;;;;;;4975342;28;20253;-74
2022/06/30 04:09:42;;;;;;;13.32;7.80;;;24.90;84.10;;;;;;4984244;28;20208;-73
2022/06/30 04:12:12;;;;;;;16.83;8.85;;;24.90;84.20;;;;;;4981954;28;20228;-73
2022/06/30 04:14:41;;;;;;;16.83;8.60;;;24.90;84.50;;;;;;4974765;28;20369;-74
2022/06/30 04:17:10;;;;;;;11.43;8.00;;;25.00;84.80;;;;;;4981025;28;20204;-73
2022/06/30 04:19:38;;;;;;;13.07;8.38;;;25.00;84.70;;;;;;4973314;28;20240;-73
2022/06/30 04:22:07;;;;;;;18.05;8.65;;;25.00;84.80;;;;;;4982728;28;20725;-73
2022/06/30 04:24:36;;;;;;;13.60;8.45;;;25.10;85.70;;;;;;4975694;28;20207;-73
2022/06/30 04:27:05;;;;;;;11.02;8.32;;;25.10;84.80;;;;;;4981149;28;20228;-75
2022/06/30 04:29:33;;;;;;;17.13;9.05;;;25.20;84.90;;;;;;4973804;28;20216;-73
2022/06/30 04:34:49;;;;;;;11.18;8.40;;;25.30;84.80;;;;;;4978519;28;20193;-73
2022/06/30 04:37:17;;;;;;;15.07;8.90;;;25.30;84.70;;;;;;4973260;28;20200;-73
2022/06/30 04:39:45;;;;;;;13.45;9.18;;;25.40;84.80;;;;;;4985173;28;20701;-73
2022/06/30 04:42:13;;;;;;;16.00;8.85;;;25.50;84.90;;;;;;4981445;28;20894;-73
2022/06/30 04:44:41;;;;;;;12.05;8.35;;;25.50;85.80;;;;;;4980730;28;20582;-73
2022/06/30 04:47:11;;;;;;;16.15;9.20;;;25.60;85.00;;;;;;4977033;28;20220;-73
2022/06/30 04:49:39;;;;;;;14.27;8.25;;;25.60;85.00;;;;;;4979572;28;20201;-73
2022/06/30 04:52:08;;;;;;;12.85;9.20;;;25.70;85.00;;;;;;4981150;28;20204;-73
2022/06/30 04:54:36;;;;;;;17.48;9.38;;;25.70;85.00;;;;;;4982567;28;20205;-73
2022/06/30 04:57:06;;;;;;;13.15;9.05;;;25.80;85.00;;;;;;4980514;28;20296;-73
2022/06/30 04:59:34;;;;;;;14.45;9.48;;;25.90;85.10;;;;;;4983684;28;20192;-73
2022/06/30 05:02:02;;;;;;;16.38;10.23;;;26.00;85.20;;;;;;4981096;28;20197;-73
2022/06/30 05:04:32;;;;;;;16.15;9.85;;;26.00;85.30;;;;;;4982761;28;20312;-73
2022/06/30 05:07:01;;;;;;;14.25;9.43;;;26.10;85.20;;;;;;4980653;28;20223;-73
2022/06/30 05:09:29;;;;;;;11.98;9.13;;;26.10;85.30;;;;;;4979953;28;20190;-73
2022/06/30 05:11:57;;;;;;;16.80;9.10;;;26.20;85.20;;;;;;4979662;28;20190;-73
2022/06/30 05:14:26;;;;;;;14.57;9.77;;;26.30;85.20;;;;;;4982375;28;20212;-73
2022/06/30 05:16:54;;;;;;;13.82;8.52;;;26.30;84.90;;;;;;4984331;28;20204;-74
2022/06/30 05:19:22;;;;;;;13.02;7.97;;;26.40;84.90;;;;;;4984479;28;20211;-74
2022/06/30 05:21:52;;;;;;;12.52;8.43;;;26.50;84.80;;;;;;4981155;28;20212;-74
2022/06/30 05:27:07;;;;;;;14.10;9.20;;;26.60;84.40;;;;;;4983749;28;20449;-73
2022/06/30 05:29:35;;;;;;;13.25;7.22;;;26.70;84.40;;;;;;4984234;28;20193;-73
2022/06/30 05:32:05;;;;;;;13.35;7.13;;;26.80;84.10;;;;;;4986070;28;20760;-73
2022/06/30 05:34:33;;;;;;;13.50;7.07;;;26.80;84.00;;;;;;4984925;28;20189;-73
2022/06/30 05:37:03;;;;;;;10.57;5.85;;;26.90;83.50;;;;;;4986974;28;20197;-73
2022/06/30 05:39:32;;;;;;;12.07;7.07;;;26.90;83.10;;;;;;4981694;28;20228;-73
2022/06/30 05:42:01;;;;;;;9.88;6.65;;;27.00;82.90;;;;;;4981601;28;20201;-74
2022/06/30 05:44:30;;;;;;;8.00;6.18;;;27.10;82.70;;;;;;4986647;28;20193;-74
2022/06/30 05:46:58;;;;;;;8.52;6.43;;;27.20;82.60;;;;;;4982140;28;20291;-74
2022/06/30 05:49:27;;;;;;;9.27;6.57;;;27.20;82.50;;;;;;4985918;28;20203;-74
2022/06/30 05:51:56;;;;;;;10.60;7.03;;;27.30;82.30;;;;;;4983100;28;20224;-74
2022/06/30 05:54:25;;;;;;;9.60;7.13;;;27.40;82.20;;;;;;4985673;28;20200;-75
2022/06/30 05:56:54;;;;;;;12.32;7.05;;;27.40;81.90;;;;;;4982227;28;20217;-75
2022/06/30 05:59:22;;;;;;;9.93;6.75;;;27.50;81.90;;;;;;4984980;28;20197;-75
2022/06/30 06:01:50;;;;;;;10.02;6.78;;;27.60;81.80;;;;;;4985848;28;20197;-75
2022/06/30 06:04:19;;;;;;;10.57;6.63;;;27.70;81.60;;;;;;4988909;28;20193;-75
2022/06/30 06:06:48;;;;;;;12.50;6.80;;;27.80;81.40;;;;;;4984665;28;20225;-73
2022/06/30 06:09:16;;;;;;;11.60;6.93;;;27.80;81.10;;;;;;4982162;28;20201;-73
2022/06/30 06:11:46;;;;;;;9.65;6.50;;;27.90;81.10;;;;;;4981499;28;20201;-73
2022/06/30 06:14:14;;;;;;;9.23;6.68;;;28.00;80.90;;;;;;4983482;28;20189;-73
2022/06/30 06:16:43;;;;;;;12.38;6.72;;;28.00;80.60;;;;;;4990608;28;20209;-73
2022/06/30 06:19:11;;;;;;;9.77;6.43;;;28.20;80.50;;;;;;4987619;28;20691;-74
2022/06/30 06:21:40;;;;;;;15.27;6.53;;;28.20;80.20;;;;;;4983327;28;20225;-72
2022/06/30 06:24:08;;;;;;;11.68;6.32;;;28.30;80.00;;;;;;4983099;28;20209;-73
2022/06/30 06:26:37;;;;;;;8.95;6.20;;;28.40;79.60;;;;;;4979996;28;20213;-73
2022/06/30 06:29:07;;;;;;;9.88;6.15;;;28.40;79.10;;;;;;4982739;28;20670;-75
2022/06/30 06:31:37;;;;;;;11.95;6.20;;;28.50;78.80;;;;;;4988069;28;20204;-73
2022/06/30 06:34:06;;;;;;;8.52;5.80;;;28.60;78.30;;;;;;4982619;28;20197;-73
2022/06/30 06:36:35;;;;;;;8.70;5.80;;;28.60;78.00;;;;;;4983590;28;20189;-73
2022/06/30 06:39:03;;;;;;;11.40;5.88;;;28.70;77.40;;;;;;4985186;28;20201;-73
2022/06/30 06:41:32;;;;;;;9.20;5.45;;;28.80;77.20;;;;;;4982750;28;20204;-73
2022/06/30 06:44:01;;;;;;;7.57;5.15;;;28.90;77.20;;;;;;4983631;28;20197;-73
2022/06/30 06:46:30;;;;;;;10.25;5.03;;;28.90;77.00;;;;;;4982136;28;20197;-73
2022/06/30 06:49:00;;;;;;;10.18;5.55;;;29.00;76.90;;;;;;4976985;28;20271;-74
2022/06/30 06:51:30;;;;;;;8.05;5.20;;;29.00;76.60;;;;;;4977318;28;20273;-74
2022/06/30 06:53:58;;;;;;;8.63;5.85;;;29.10;76.30;;;;;;4981569;28;20237;-73
2022/06/30 06:56:28;;;;;;;8.45;5.60;;;29.20;76.00;;;;;;4984328;28;20204;-74
2022/06/30 06:59:00;;;;;;;12.35;5.95;;;29.30;75.80;;;;;;4983993;28;20663;-74
2022/06/30 07:01:31;;;;;;;9.93;5.38;;;29.40;75.20;;;;;;4990353;28;20201;-74
2022/06/30 07:04:00;;;;;;;10.07;5.57;;;29.40;75.00;;;;;;4989542;28;20220;-72
2022/06/30 07:06:28;;;;;;;7.93;4.93;;;29.50;74.70;;;;;;4988903;28;20266;-73
2022/06/30 07:08:57;;;;;;;7.00;4.95;;;29.60;74.40;;;;;;4977305;28;20256;-74
2022/06/30 07:11:25;;;;;;;6.60;5.10;;;29.60;74.10;;;;;;4983414;28;20197;-73
2022/06/30 07:13:53;;;;;;;11.18;5.10;;;29.70;74.00;;;;;;4979322;28;20197;-75
2022/06/30 07:16:22;;;;;;;8.25;5.70;;;29.70;73.80;;;;;;4981371;28;20694;-74
2022/06/30 07:18:52;;;;;;;13.85;5.50;;;29.80;73.40;;;;;;4977132;28;20209;-75
2022/06/30 07:21:20;;;;;;;12.73;4.93;;;29.80;72.70;;;;;;4981770;28;20221;-75
2022/06/30 07:23:49;;;;;;;8.48;5.47;;;29.90;72.60;;;;;;4980579;28;20215;-74
2022/06/30 07:26:17;;;;;;;13.88;5.35;;;29.90;72.40;;;;;;4984127;28;20204;-72
2022/06/30 07:28:45;;;;;;;8.35;5.45;;;30.00;71.90;;;;;;4979506;28;20236;-73
2022/06/30 07:31:23;;;;;;;8.38;5.60;;;30.00;72.50;;;;;;4977641;28;20586;-73
2022/06/30 07:33:53;;;;;;;6.93;4.35;;;30.10;71.50;;;;;;4981847;28;20224;-73
2022/06/30 07:36:22;;;;;;;10.07;5.28;;;30.20;70.50;;;;;;4974513;28;20205;-74
2022/06/30 07:38:51;;;;;;;9.45;5.25;;;30.20;70.00;;;;;;4980797;28;20201;-73
2022/06/30 07:41:20;;;;;;;11.02;5.45;;;30.30;70.00;;;;;;4981815;28;20197;-73
2022/06/30 07:43:48;;;;;;;8.52;5.20;;;30.30;69.80;;;;;;4982320;28;20232;-73
2022/06/30 07:46:17;;;;;;;10.23;5.20;;;30.40;69.50;;;;;;4981958;28;20764;-74
2022/06/30 07:48:47;;;;;;;9.32;4.70;;;30.40;68.00;;;;;;4978044;28;20290;-73
2022/06/30 07:51:19;;;;;;;6.40;4.25;;;30.40;68.20;;;;;;4983342;28;20228;-72
2022/06/30 07:53:48;;;;;;;6.53;4.30;;;30.50;68.30;;;;;;4984430;28;20211;-73
2022/06/30 07:56:17;;;;;;;9.02;4.32;;;30.50;67.30;;;;;;4980090;28;20193;-75
2022/06/30 07:58:47;;;;;;;6.65;4.05;;;30.60;66.90;;;;;;4985695;28;20757;-74
2022/06/30 08:01:17;;;;;;;5.82;3.78;;;30.70;66.30;;;;;;4981280;28;20200;-74
2022/06/30 08:03:46;;;;;;;8.57;4.15;;;30.70;65.80;;;;;;4979559;28;20552;-75
2022/06/30 08:06:14;;;;;;;7.32;4.50;;;30.70;65.90;;;;;;4980124;28;20263;-74
2022/06/30 08:08:44;;;;;;;5.53;3.92;;;30.80;65.40;;;;;;4984341;28;20220;-75
2022/06/30 08:11:12;;;;;;;6.57;4.32;;;30.80;65.20;;;;;;4983994;28;20238;-75
2022/06/30 08:13:41;;;;;;;9.68;4.32;;;30.90;65.10;;;;;;4979265;28;20201;-74
2022/06/30 08:16:11;;;;;;;8.75;4.05;;;30.90;64.90;;;;;;4982134;28;20205;-74
2022/06/30 08:18:39;;;;;;;5.55;3.88;;;31.00;64.70;;;;;;4982012;28;20205;-75
2022/06/30 08:21:09;;;;;;;7.75;4.32;;;31.00;64.50;;;;;;4979790;28;20240;-75
2022/06/30 08:23:41;;;;;;;7.72;4.38;;;31.10;64.40;;;;;;4980227;28;20663;-75
2022/06/30 08:26:11;;;;;;;7.72;3.80;;;31.10;63.90;;;;;;4969166;28;20635;-74
2022/06/30 08:28:39;;;;;;;9.02;3.95;;;31.10;63.90;;;;;;4979254;28;20225;-74
2022/06/30 08:31:16;;;;;;;5.68;3.95;;;31.10;62.90;;;;;;4983502;28;20283;-74
2022/06/30 08:33:45;;;;;;;6.15;4.32;;;31.20;62.10;;;;;;4983713;28;20193;-75
2022/06/30 08:36:13;;;;;;;8.48;4.28;;;31.20;62.40;;;;;;4982476;28;20823;-75
2022/06/30 08:38:42;;;;;;;8.00;4.35;;;31.30;62.20;;;;;;4981324;28;20197;-74
2022/06/30 08:43:59;;;;;;;7.78;4.60;;;31.30;61.70;;;;;;4983448;28;20193;-74
2022/06/30 08:46:28;;;;;;;7.65;4.93;;;31.30;62.00;;;;;;4982152;28;20655;-75
2022/06/30 08:48:57;;;;;;;7.53;4.45;;;31.40;61.90;;;;;;4975455;28;20212;-74
2022/06/30 08:51:28;;;;;;;8.30;5.05;;;31.50;61.20;;;;;;4983279;28;20685;-74
2022/06/30 08:54:00;;;;;;;6.32;4.03;;;31.50;61.40;;;;;;4982836;28;20276;-74
2022/06/30 08:56:34;;;;;;;7.88;4.68;;;31.50;61.20;;;;;;4984585;28;20193;-74
2022/06/30 08:59:04;;;;;;;5.47;3.97;;;31.50;60.30;;;;;;4978736;28;20514;-74
2022/06/30 09:01:33;;;;;;;6.97;4.63;;;31.50;60.60;;;;;;4983666;28;20185;-74
2022/06/30 09:04:01;;;;;;;9.65;4.50;;;31.60;61.20;;;;;;4980837;28;20197;-75
2022/06/30 09:06:30;;;;;;;10.05;4.18;;;31.60;60.60;;;;;;4986530;28;20185;-74
2022/06/30 09:09:06;;;;;;;6.85;4.45;;;31.70;60.50;;;;;;4980695;28;20209;-75
2022/06/30 09:11:50;;;;;;;9.30;4.18;;;31.70;60.70;;;;;;4986586;28;20197;-75
2022/06/30 09:14:36;;;;;;;6.93;4.30;;;31.70;59.30;;;;;;4985161;28;20574;-75
2022/06/30 09:17:06;;;;;;;8.10;4.70;;;31.80;59.80;;;;;;4980723;28;20189;-74
2022/06/30 09:19:40;;;;;;;7.72;4.53;;;31.80;59.90;;;;;;4986665;28;20861;-74
2022/06/30 09:22:14;;;;;;;6.65;3.95;;;31.90;59.90;;;;;;4987821;28;20189;-74
2022/06/30 09:24:43;;;;;;;6.90;3.88;;;32.00;59.90;;;;;;4986692;28;20201;-74
2022/06/30 09:27:20;;;;;;;6.38;4.40;;;32.00;59.90;;;;;;4984692;28;20200;-75
2022/06/30 09:29:55;;;;;;;6.05;4.03;;;32.10;59.60;;;;;;4986520;28;20832;-76
2022/06/30 09:32:48;;;;;;;8.35;4.05;;;32.20;59.10;;;;;;4984376;28;20197;-74
2022/06/30 09:35:18;;;;;;;6.00;4.10;;;32.20;58.10;;;;;;4986133;28;20240;-75
2022/06/30 09:37:46;;;;;;;6.18;4.22;;;32.20;58.20;;;;;;4981209;28;20216;-74
2022/06/30 09:40:15;;;;;;;8.20;4.35;;;32.20;58.10;;;;;;4986613;28;20209;-74
2022/06/30 09:42:47;;;;;;;6.90;4.05;;;32.30;58.30;;;;;;4988922;28;20212;-74
2022/06/30 09:45:41;;;;;;;10.75;3.92;;;32.40;58.40;;;;;;4981493;28;20280;-74
2022/06/30 09:48:11;;;;;;;6.27;3.93;;;32.40;58.20;;;;;;4981414;28;20568;-75
2022/06/30 09:50:40;;;;;;;5.65;3.75;;;32.50;58.00;;;;;;4984830;28;20738;-74
2022/06/30 09:53:13;;;;;;;10.63;3.78;;;32.50;56.70;;;;;;4993785;28;20220;-74
2022/06/30 09:55:44;;;;;;;8.43;3.92;;;32.60;57.00;;;;;;4986470;28;20205;-75
2022/06/30 09:58:15;;;;;;;6.28;4.05;;;32.60;56.80;;;;;;4985466;28;20192;-75
2022/06/30 10:00:49;;;;;;;4.63;3.55;;;32.60;56.50;;;;;;4985901;28;20579;-74
2022/06/30 10:03:18;;;;;;;9.85;4.10;;;32.70;56.30;;;;;;4983696;28;20247;-75
2022/06/30 10:05:48;;;;;;;7.13;4.20;;;32.80;56.40;;;;;;4986007;28;20193;-75
2022/06/30 10:08:19;;;;;;;7.07;3.88;;;32.80;57.10;;;;;;4985459;28;20194;-74
2022/06/30 10:10:48;;;;;;;4.20;3.60;;;32.90;56.00;;;;;;4984907;28;20193;-74
2022/06/30 10:13:19;;;;;;;6.03;3.72;;;32.90;56.50;;;;;;4990538;28;20192;-74
2022/06/30 10:15:53;;;;;;;10.70;4.13;;;33.00;55.40;;;;;;4981172;28;20184;-75
2022/06/30 10:18:24;;;;;;;7.03;4.07;;;33.00;55.60;;;;;;4986980;28;20184;-75
2022/06/30 10:20:53;;;;;;;6.82;3.47;;;33.10;54.90;;;;;;4991092;28;20252;-74
2022/06/30 10:23:23;;;;;;;7.25;3.92;;;33.20;54.50;;;;;;4986409;28;20197;-75
2022/06/30 10:25:54;;;;;;;7.68;3.60;;;33.20;54.70;;;;;;4987545;28;20189;-74
2022/06/30 10:28:25;;;;;;;6.13;3.75;;;33.30;54.50;;;;;;4981936;28;20200;-73
2022/06/30 10:31:01;;;;;;;5.20;3.67;;;33.30;54.30;;;;;;4985428;28;20208;-73
2022/06/30 10:33:38;;;;;;;5.75;4.10;;;33.40;53.80;;;;;;4985035;28;20201;-75
2022/06/30 10:36:13;;;;;;;4.80;3.22;;;33.50;53.70;;;;;;4982410;28;20189;-74
2022/06/30 10:38:47;;;;;;;10.13;4.05;;;33.50;53.50;;;;;;4983944;28;20193;-75
2022/06/30 10:41:17;;;;;;;4.32;3.40;;;33.60;53.50;;;;;;4982950;28;20189;-74
2022/06/30 10:44:14;;;;;;;6.75;3.38;;;33.60;53.40;;;;;;4982807;28;20193;-75
2022/06/30 10:47:08;;;;;;;5.18;3.50;;;33.70;52.70;;;;;;4977871;28;20835;-74
2022/06/30 10:49:52;;;;;;;5.65;3.30;;;33.80;52.40;;;;;;4982515;28;20307;-75
2022/06/30 10:52:23;;;;;;;5.45;3.40;;;33.80;52.20;;;;;;4986725;28;20189;-75
2022/06/30 10:55:00;;;;;;;5.28;3.20;;;33.80;52.20;;;;;;4982470;28;20197;-75
2022/06/30 10:58:01;;;;;;;5.38;3.47;;;33.90;51.80;;;;;;4980325;28;20196;-75
2022/06/30 11:00:59;;;;;;;4.32;3.20;;;34.00;51.60;;;;;;4983017;28;20189;-74
2022/06/30 11:04:05;;;;;;;5.53;3.03;;;34.00;52.00;;;;;;4980740;28;20193;-75
2022/06/30 11:07:02;;;;;;;8.23;2.90;;;34.10;51.80;;;;;;4984836;28;20271;-75
2022/06/30 11:10:06;;;;;;;4.47;3.00;;;34.10;51.20;;;;;;4937918;28;20717;-75
2022/06/30 11:12:57;;;;;;;5.75;2.80;;;34.20;51.10;;;;;;4974117;28;20194;-75
2022/06/30 11:15:55;;;;;;;5.55;2.63;;;34.20;50.30;;;;;;4980311;28;20824;-77
2022/06/30 11:18:24;;;;;;;12.70;3.00;;;34.30;50.40;;;;;;4981423;28;20189;-75
2022/06/30 11:20:55;;;;;;;8.55;2.53;;;34.30;50.70;;;;;;4985992;28;20232;-74
2022/06/30 11:23:23;;;;;;;3.15;2.40;;;34.40;50.20;;;;;;4987388;28;20192;-75
2022/06/30 11:28:40;;;;;;;3.63;2.60;;;34.50;49.50;;;;;;4981574;28;20231;-76
2022/06/30 11:31:25;;;;;;;3.53;2.25;;;34.50;49.30;;;;;;4979199;28;20209;-73
2022/06/30 11:33:55;;;;;;;8.77;2.25;;;34.60;49.10;;;;;;4989332;28;20185;-73
2022/06/30 11:36:24;;;;;;;4.00;2.13;;;34.60;47.90;;;;;;4984431;28;20598;-73
2022/06/30 11:39:00;;;;;;;4.47;2.45;;;34.70;47.30;;;;;;4981171;28;20241;-74
2022/06/30 11:44:17;;;;;;;4.15;1.90;;;34.70;44.00;;;;;;4982945;28;20201;-75
2022/06/30 11:46:57;;;;;;;3.75;2.30;;;34.70;45.00;;;;;;4980608;28;20229;-75
2022/06/30 11:49:28;;;;;;;4.95;2.53;;;34.70;45.10;;;;;;4976808;28;20303;-76
2022/06/30 11:51:57;;;;;;;4.65;2.42;;;34.70;45.00;;;;;;4981000;28;20617;-74
2022/06/30 11:54:30;;;;;;;4.70;2.20;;;34.80;44.30;;;;;;4983107;28;20201;-75
2022/06/30 11:57:00;;;;;;;6.95;2.60;;;34.90;44.80;;;;;;4979564;28;20199;-75
2022/06/30 11:59:29;;;;;;;3.28;2.17;;;35.00;45.60;;;;;;4968692;28;20231;-74
2022/06/30 12:02:03;;;;;;;5.57;2.10;;;35.00;45.90;;;;;;4969051;28;20194;-75
2022/06/30 12:04:35;;;;;;;6.20;2.75;;;35.10;45.80;;;;;;4962546;28;20318;-76
2022/06/30 12:07:06;;;;;;;4.28;2.60;;;35.10;45.00;;;;;;4964665;28;20232;-75
2022/06/30 12:09:35;;;;;;;7.20;2.90;;;35.20;45.00;;;;;;4968986;28;20195;-75
2022/06/30 12:12:05;;;;;;;7.28;2.40;;;35.20;45.00;;;;;;4968421;28;20204;-75
2022/06/30 12:14:35;;;;;;;8.10;2.08;;;35.30;45.10;;;;;;4967610;28;20194;-75
2022/06/30 12:17:06;;;;;;;6.07;2.38;;;35.30;44.80;;;;;;4988919;28;20232;-75
2022/06/30 12:19:35;;;;;;;4.70;2.28;;;35.40;44.20;;;;;;4981472;28;20195;-74
2022/06/30 12:22:05;;;;;;;4.22;2.22;;;35.40;43.50;;;;;;4984868;28;20189;-74
2022/06/30 12:24:35;;;;;;;6.55;1.98;;;35.40;43.80;;;;;;4977450;28;20201;-74
2022/06/30 12:27:04;;;;;;;6.13;2.40;;;35.50;43.90;;;;;;4983017;28;20189;-75
2022/06/30 12:29:33;;;;;;;3.55;2.75;;;35.60;43.40;;;;;;4981952;28;20211;-76
2022/06/30 12:32:05;;;;;;;6.28;2.55;;;35.70;43.60;;;;;;4987524;28;20719;-74
2022/06/30 12:34:48;;;;;;;6.35;2.50;;;35.70;44.10;;;;;;4984268;28;20276;-75
2022/06/30 12:37:16;;;;;;;3.95;2.30;;;35.80;43.90;;;;;;4989991;28;20204;-75
2022/06/30 12:39:45;;;;;;;3.03;2.08;;;35.90;44.10;;;;;;4992115;28;20564;-75
2022/06/30 12:42:14;;;;;;;3.83;2.05;;;36.00;43.90;;;;;;4984773;28;20204;-74
2022/06/30 12:44:42;;;;;;;6.45;2.28;;;36.20;44.10;;;;;;4976079;28;20189;-74
2022/06/30 12:47:13;;;;;;;4.82;2.53;;;36.30;44.20;;;;;;4982561;28;20193;-74
2022/06/30 12:49:42;;;;;;;4.93;2.35;;;36.50;44.10;;;;;;4982099;28;20193;-74
2022/06/30 12:52:16;;;;;;;4.13;2.47;;;36.60;44.00;;;;;;4981154;28;20557;-75
2022/06/30 12:54:53;;;;;;;3.38;2.40;;;36.70;43.30;;;;;;4988595;28;20201;-75
2022/06/30 12:57:22;;;;;;;3.42;2.08;;;36.70;42.80;;;;;;4986115;28;20285;-75
2022/06/30 12:59:52;;;;;;;6.88;2.90;;;36.70;42.60;;;;;;4982802;28;20201;-74
2022/06/30 13:02:23;;;;;;;4.82;2.53;;;36.70;42.90;;;;;;4980944;28;20189;-74
2022/06/30 13:04:55;;;;;;;5.28;2.83;;;36.80;42.60;;;;;;4986921;28;20205;-74
2022/06/30 13:07:23;;;;;;;6.97;2.40;;;36.90;42.70;;;;;;4987542;28;20662;-76
2022/06/30 13:09:52;;;;;;;4.07;2.65;;;37.00;42.80;;;;;;4986083;28;20195;-75
2022/06/30 13:12:20;;;;;;;6.10;2.55;;;37.10;42.50;;;;;;4986227;28;20189;-75
2022/06/30 13:14:49;;;;;;;3.90;2.50;;;37.20;42.10;;;;;;4985524;28;20216;-76
2022/06/30 13:17:18;;;;;;;5.80;2.60;;;37.20;42.30;;;;;;4987664;28;20674;-74